createdAt,value
2022-09-27T00:00:38.791Z,7.40
2022-09-27T00:03:06.363Z,7.40
2022-09-27T00:05:33.745Z,7.50
2022-09-27T00:08:01.189Z,7.50
2022-09-27T00:10:28.996Z,7.60
2022-09-27T00:12:56.444Z,7.60
2022-09-27T00:15:23.821Z,7.50
2022-09-27T00:17:52.082Z,7.50
2022-09-27T00:20:20.687Z,7.40
2022-09-27T00:22:48.605Z,7.30
2022-09-27T00:25:16.217Z,7.30
2022-09-27T00:27:43.707Z,7.20
2022-09-27T00:30:11.570Z,7.20
2022-09-27T00:32:38.965Z,7.20
2022-09-27T00:35:06.513Z,7.20
2022-09-27T00:37:33.966Z,7.20
2022-09-27T00:40:01.572Z,7.30
2022-09-27T00:42:28.917Z,7.30
2022-09-27T00:45:04.972Z,7.30
2022-09-27T00:47:32.433Z,7.30
2022-09-27T00:49:59.811Z,7.30
2022-09-27T00:52:27.129Z,7.30
2022-09-27T00:54:59.336Z,7.30
2022-09-27T00:57:27.194Z,7.30
2022-09-27T01:00:06.377Z,7.20
2022-09-27T01:02:36.523Z,7.20
2022-09-27T01:05:05.604Z,7.20
2022-09-27T01:07:33.036Z,7.20
2022-09-27T01:10:00.563Z,7.20
2022-09-27T01:12:36.340Z,7.20
2022-09-27T01:15:03.766Z,7.20
2022-09-27T01:17:39.736Z,7.20
2022-09-27T01:20:10.255Z,7.10
2022-09-27T01:22:56.545Z,7.10
2022-09-27T01:25:30.283Z,7.10
2022-09-27T01:28:09.132Z,7.00
2022-09-27T01:30:44.594Z,7.00
2022-09-27T01:33:16.261Z,7.00
2022-09-27T01:35:46.981Z,7.00
2022-09-27T01:38:21.869Z,7.00
2022-09-27T01:40:52.836Z,7.10
2022-09-27T01:43:59.542Z,7.10
2022-09-27T01:46:40.674Z,7.10
2022-09-27T01:49:36.322Z,7.10
2022-09-27T01:52:06.123Z,7.20
2022-09-27T01:54:59.937Z,7.30
2022-09-27T01:57:41.396Z,7.30
2022-09-27T02:00:19.676Z,7.30
2022-09-27T02:02:52.900Z,7.40
2022-09-27T02:05:43.660Z,7.40
2022-09-27T02:08:36.772Z,7.40
2022-09-27T02:11:11.851Z,7.50
2022-09-27T02:13:43.902Z,7.50
2022-09-27T02:16:46.697Z,7.50
2022-09-27T02:19:34.777Z,7.50
2022-09-27T02:22:11.595Z,7.60
2022-09-27T02:24:41.348Z,7.60
2022-09-27T02:27:20.782Z,7.60
2022-09-27T02:29:58.648Z,7.60
2022-09-27T02:32:26.215Z,7.60
2022-09-27T02:34:54.865Z,7.70
2022-09-27T02:37:22.340Z,7.70
2022-09-27T02:39:49.876Z,7.70
2022-09-27T02:42:17.322Z,7.60
2022-09-27T02:44:45.092Z,7.70
2022-09-27T02:47:28.860Z,7.70
2022-09-27T02:49:56.687Z,7.70
2022-09-27T02:52:56.164Z,7.70
2022-09-27T02:55:31.117Z,7.60
2022-09-27T02:58:04.270Z,7.60
2022-09-27T03:00:54.751Z,7.60
2022-09-27T03:03:52.264Z,7.60
2022-09-27T03:06:21.232Z,7.50
2022-09-27T03:08:49.257Z,7.40
2022-09-27T03:11:18.050Z,7.40
2022-09-27T03:14:07.253Z,7.40
2022-09-27T03:16:35.495Z,7.40
2022-09-27T03:19:13.396Z,7.40
2022-09-27T03:21:59.630Z,7.40
2022-09-27T03:24:27.146Z,7.40
2022-09-27T03:26:55.113Z,7.40
2022-09-27T03:29:22.827Z,7.40
2022-09-27T03:31:57.053Z,7.40
2022-09-27T03:34:44.763Z,7.40
2022-09-27T03:37:12.179Z,7.40
2022-09-27T03:39:40.671Z,7.40
2022-09-27T03:42:09.188Z,7.40
2022-09-27T03:44:39.326Z,7.30
2022-09-27T03:47:07.412Z,7.30
2022-09-27T03:49:35.380Z,7.30
2022-09-27T03:52:02.728Z,7.30
2022-09-27T03:54:30.086Z,7.30
2022-09-27T03:56:57.492Z,7.30
2022-09-27T03:59:25.545Z,7.30
2022-09-27T04:02:33.985Z,7.30
2022-09-27T04:05:25.187Z,7.30
2022-09-27T04:08:15.711Z,7.30
2022-09-27T04:10:43.334Z,7.30
2022-09-27T04:13:10.892Z,7.30
2022-09-27T04:15:52.177Z,7.30
2022-09-27T04:18:26.027Z,7.30
2022-09-27T04:21:12.468Z,7.40
2022-09-27T04:23:46.903Z,7.40
2022-09-27T04:26:17.515Z,7.40
2022-09-27T04:28:54.550Z,7.40
2022-09-27T04:31:22.799Z,7.50
2022-09-27T04:34:45.585Z,7.50
2022-09-27T04:37:14.885Z,7.50
2022-09-27T04:39:46.454Z,7.50
2022-09-27T04:42:14.363Z,7.50
2022-09-27T04:44:41.854Z,7.50
2022-09-27T04:47:09.274Z,7.60
2022-09-27T04:49:36.883Z,7.60
2022-09-27T04:52:05.447Z,7.60
2022-09-27T04:54:33.362Z,7.60
2022-09-27T04:57:10.478Z,7.60
2022-09-27T04:59:38.478Z,7.70
2022-09-27T05:02:05.952Z,7.70
2022-09-27T05:04:56.488Z,7.70
2022-09-27T05:07:24.030Z,7.80
2022-09-27T05:09:59.738Z,7.80
2022-09-27T05:12:27.792Z,7.80
2022-09-27T05:15:01.013Z,7.80
2022-09-27T05:17:47.007Z,7.90
2022-09-27T05:20:37.962Z,7.80
2022-09-27T05:23:27.927Z,7.90
2022-09-27T05:25:56.526Z,7.90
2022-09-27T05:28:27.142Z,7.90
2022-09-27T05:30:55.165Z,7.90
2022-09-27T05:33:22.585Z,7.90
2022-09-27T05:35:53.762Z,7.90
2022-09-27T05:38:25.283Z,8.00
2022-09-27T05:40:56.796Z,8.00
2022-09-27T05:43:25.345Z,8.00
2022-09-27T05:45:53.396Z,8.00
2022-09-27T05:48:22.265Z,8.00
2022-09-27T05:51:06.827Z,8.00
2022-09-27T05:53:37.352Z,8.00
2022-09-27T05:56:08.095Z,8.10
2022-09-27T05:58:55.463Z,8.10
2022-09-27T06:01:24.109Z,8.00
2022-09-27T06:04:10.095Z,8.10
2022-09-27T06:06:58.925Z,8.10
2022-09-27T06:09:27.423Z,8.10
2022-09-27T06:11:56.915Z,8.10
2022-09-27T06:14:24.767Z,8.10
2022-09-27T06:17:07.037Z,8.10
2022-09-27T06:19:36.998Z,8.10
2022-09-27T06:22:04.868Z,8.10
2022-09-27T06:24:55.162Z,8.20
2022-09-27T06:27:26.737Z,8.10
2022-09-27T06:30:20.703Z,8.20
2022-09-27T06:33:00.754Z,8.20
2022-09-27T06:35:40.131Z,8.20
2022-09-27T06:38:11.238Z,8.30
2022-09-27T06:40:48.276Z,8.30
2022-09-27T06:43:38.615Z,8.30
2022-09-27T06:46:06.189Z,8.30
2022-09-27T06:48:53.153Z,8.30
2022-09-27T06:51:21.030Z,8.30
2022-09-27T06:53:49.741Z,8.30
2022-09-27T06:56:17.359Z,8.40
2022-09-27T06:59:13.107Z,8.40
2022-09-27T07:01:40.753Z,8.40
2022-09-27T07:04:34.428Z,8.40
2022-09-27T07:07:16.298Z,8.50
2022-09-27T07:09:48.807Z,8.40
2022-09-27T07:12:16.225Z,8.50
2022-09-27T07:14:43.724Z,8.60
2022-09-27T07:17:17.121Z,8.60
2022-09-27T07:19:47.323Z,8.60
2022-09-27T07:22:15.027Z,8.70
2022-09-27T07:24:45.462Z,8.70
2022-09-27T07:27:14.537Z,8.80
2022-09-27T07:29:42.276Z,8.80
2022-09-27T07:32:09.725Z,8.80
2022-09-27T07:34:38.697Z,8.80
2022-09-27T07:37:06.718Z,8.90
2022-09-27T07:39:38.929Z,8.90
2022-09-27T07:42:06.623Z,9.00
2022-09-27T07:44:36.983Z,9.00
2022-09-27T07:47:25.393Z,9.10
2022-09-27T07:50:12.350Z,9.20
2022-09-27T07:52:52.221Z,9.20
2022-09-27T07:55:37.119Z,9.30
2022-09-27T07:58:11.983Z,9.30
2022-09-27T08:00:40.891Z,9.30
2022-09-27T08:03:16.710Z,9.40
2022-09-27T08:05:47.503Z,9.40
2022-09-27T08:08:16.437Z,9.40
2022-09-27T08:10:47.087Z,9.40
2022-09-27T08:13:18.068Z,9.40
2022-09-27T08:15:45.923Z,9.40
2022-09-27T08:18:13.700Z,9.30
2022-09-27T08:21:00.157Z,9.20
2022-09-27T08:23:37.087Z,9.10
2022-09-27T08:26:24.822Z,9.00
2022-09-27T08:28:55.551Z,8.90
2022-09-27T08:31:27.734Z,8.80
2022-09-27T08:33:57.902Z,8.70
2022-09-27T08:36:26.366Z,8.70
2022-09-27T08:38:57.777Z,8.70
2022-09-27T08:41:33.515Z,8.70
2022-09-27T08:44:20.538Z,8.70
2022-09-27T08:47:05.219Z,8.70
2022-09-27T08:49:36.525Z,8.60
2022-09-27T08:52:06.110Z,8.60
2022-09-27T08:54:35.348Z,8.60
2022-09-27T08:57:10.336Z,8.60
2022-09-27T08:59:41.367Z,8.60
2022-09-27T09:02:15.279Z,8.60
2022-09-27T09:04:45.979Z,8.60
2022-09-27T09:07:13.371Z,8.70
2022-09-27T09:09:55.031Z,8.80
2022-09-27T09:12:44.993Z,8.80
2022-09-27T09:15:31.038Z,8.80
2022-09-27T09:18:00.153Z,8.90
2022-09-27T09:20:48.428Z,9.10
2022-09-27T09:23:27.309Z,9.30
2022-09-27T09:25:58.199Z,9.40
2022-09-27T09:28:34.699Z,9.60
2022-09-27T09:31:08.159Z,9.90
2022-09-27T09:33:41.440Z,10.20
2022-09-27T09:36:13.860Z,10.40
2022-09-27T09:38:44.601Z,10.50
2022-09-27T09:41:18.069Z,10.60
2022-09-27T09:43:48.293Z,10.60
2022-09-27T09:46:20.684Z,10.80
2022-09-27T09:48:52.288Z,10.80
2022-09-27T09:51:26.329Z,10.90
2022-09-27T09:53:56.840Z,11.20
2022-09-27T09:56:33.109Z,11.30
2022-09-27T09:59:02.831Z,11.30
2022-09-27T10:01:47.107Z,11.40
2022-09-27T10:04:25.998Z,11.50
2022-09-27T10:06:57.804Z,11.50
2022-09-27T10:09:28.881Z,11.40
2022-09-27T10:12:15.084Z,11.30
2022-09-27T10:14:48.953Z,11.30
2022-09-27T10:17:18.418Z,11.20
2022-09-27T10:19:48.555Z,11.10
2022-09-27T10:22:26.600Z,11.10
2022-09-27T10:24:56.116Z,11.10
2022-09-27T10:27:45.994Z,11.00
2022-09-27T10:30:32.868Z,10.90
2022-09-27T10:33:05.777Z,10.90
2022-09-27T10:35:45.373Z,10.80
2022-09-27T10:38:36.676Z,10.80
2022-09-27T10:41:17.116Z,10.80
2022-09-27T10:43:45.360Z,10.80
2022-09-27T10:46:27.244Z,10.80
2022-09-27T10:49:21.453Z,10.80
2022-09-27T10:51:59.279Z,10.70
2022-09-27T10:54:28.472Z,10.60
2022-09-27T10:56:57.002Z,10.50
2022-09-27T10:59:24.984Z,10.30
2022-09-27T11:01:53.138Z,10.20
2022-09-27T11:04:40.133Z,10.10
2022-09-27T11:07:34.506Z,10.10
2022-09-27T11:10:40.460Z,10.10
2022-09-27T11:13:12.646Z,10.10
2022-09-27T11:15:59.949Z,10.20
2022-09-27T11:18:41.135Z,10.20
2022-09-27T11:21:14.743Z,10.20
2022-09-27T11:24:01.459Z,10.20
2022-09-27T11:26:36.793Z,10.10
2022-09-27T11:29:13.625Z,9.90
2022-09-27T11:31:59.736Z,9.80
2022-09-27T11:34:33.429Z,9.60
2022-09-27T11:37:07.633Z,9.50
2022-09-27T11:39:54.265Z,9.40
2022-09-27T11:42:28.357Z,9.30
2022-09-27T11:45:27.745Z,9.30
2022-09-27T11:48:14.405Z,9.10
2022-09-27T11:50:53.815Z,9.00
2022-09-27T11:53:26.231Z,8.90
2022-09-27T11:56:02.659Z,8.80
2022-09-27T11:58:30.743Z,8.70
2022-09-27T12:01:22.082Z,8.60
2022-09-27T12:03:50.575Z,8.60
2022-09-27T12:06:51.005Z,8.60
2022-09-27T12:09:22.085Z,8.60
2022-09-27T12:11:53.027Z,8.60
2022-09-27T12:14:36.656Z,8.60
2022-09-27T12:17:07.067Z,8.60
2022-09-27T12:19:38.680Z,8.60
2022-09-27T12:22:15.640Z,8.60
2022-09-27T12:24:46.055Z,8.60
2022-09-27T12:27:43.518Z,8.60
2022-09-27T12:30:16.729Z,8.70
2022-09-27T12:32:49.975Z,8.80
2022-09-27T12:35:43.839Z,8.80
2022-09-27T12:38:20.819Z,8.80
2022-09-27T12:40:51.269Z,8.80
2022-09-27T12:43:27.549Z,9.00
2022-09-27T12:46:07.164Z,9.20
2022-09-27T12:48:34.742Z,9.30
2022-09-27T12:51:06.930Z,9.40
2022-09-27T12:53:54.183Z,9.30
2022-09-27T12:56:32.617Z,9.20
2022-09-27T12:59:18.730Z,9.10
2022-09-27T13:01:54.627Z,9.10
2022-09-27T13:04:25.188Z,9.10
2022-09-27T13:06:55.757Z,9.10
2022-09-27T13:09:28.173Z,9.20
2022-09-27T13:12:00.370Z,9.30
2022-09-27T13:14:30.074Z,9.30
2022-09-27T13:16:57.648Z,9.40
2022-09-27T13:19:35.698Z,9.50
2022-09-27T13:22:08.599Z,9.70
2022-09-27T13:25:00.791Z,9.80
2022-09-27T13:27:49.717Z,9.80
2022-09-27T13:30:23.353Z,9.80
2022-09-27T13:33:09.227Z,9.60
2022-09-27T13:36:07.941Z,9.50
2022-09-27T13:38:36.931Z,9.40
2022-09-27T13:41:18.120Z,9.50
2022-09-27T13:44:05.256Z,9.60
2022-09-27T13:46:48.638Z,9.90
2022-09-27T13:49:24.272Z,10.10
2022-09-27T13:52:21.151Z,10.20
2022-09-27T13:55:01.426Z,10.00
2022-09-27T13:57:35.845Z,9.70
2022-09-27T14:00:07.706Z,9.30
2022-09-27T14:02:58.753Z,9.10
2022-09-27T14:05:39.360Z,8.80
2022-09-27T14:08:11.832Z,8.80
2022-09-27T14:10:43.341Z,8.80
2022-09-27T14:13:11.535Z,9.00
2022-09-27T14:15:50.000Z,9.20
2022-09-27T14:18:18.138Z,9.30
2022-09-27T14:20:47.164Z,9.30
2022-09-27T14:23:37.083Z,9.30
2022-09-27T14:26:05.773Z,9.20
2022-09-27T14:28:40.669Z,9.10
2022-09-27T14:31:29.543Z,9.10
2022-09-27T14:34:17.288Z,9.20
2022-09-27T14:37:07.253Z,9.20
2022-09-27T14:39:45.625Z,9.30
2022-09-27T14:42:29.533Z,9.60
2022-09-27T14:45:00.591Z,9.90
2022-09-27T14:47:28.338Z,10.20
2022-09-27T14:49:57.176Z,10.50
2022-09-27T14:52:28.551Z,10.70
2022-09-27T14:54:59.661Z,11.00
2022-09-27T14:57:28.569Z,11.10
2022-09-27T14:59:57.973Z,11.30
2022-09-27T15:02:26.519Z,11.50
2022-09-27T15:04:55.065Z,11.60
2022-09-27T15:07:23.139Z,11.60
2022-09-27T15:09:51.320Z,11.40
2022-09-27T15:12:23.448Z,11.20
2022-09-27T15:14:54.123Z,11.00
2022-09-27T15:17:22.150Z,10.80
2022-09-27T15:20:04.066Z,10.70
2022-09-27T15:22:48.882Z,10.70
2022-09-27T15:25:19.384Z,10.60
2022-09-27T15:27:51.062Z,10.50
2022-09-27T15:30:19.885Z,10.50
2022-09-27T15:32:49.648Z,10.50
2022-09-27T15:35:19.924Z,10.50
2022-09-27T15:37:47.369Z,10.60
2022-09-27T15:40:20.956Z,10.60
2022-09-27T15:42:56.090Z,10.60
2022-09-27T15:45:30.767Z,10.60
2022-09-27T15:48:06.103Z,10.70
2022-09-27T15:50:34.661Z,10.70
2022-09-27T15:53:04.030Z,10.60
2022-09-27T15:55:33.344Z,10.50
2022-09-27T15:58:05.222Z,10.40
2022-09-27T16:00:32.778Z,10.20
2022-09-27T16:03:02.234Z,9.90
2022-09-27T16:05:30.295Z,9.80
2022-09-27T16:07:58.957Z,9.60
2022-09-27T16:10:29.507Z,9.50
2022-09-27T16:12:56.947Z,9.40
2022-09-27T16:15:24.428Z,9.40
2022-09-27T16:17:51.979Z,9.30
2022-09-27T16:20:21.580Z,9.30
2022-09-27T16:22:48.996Z,9.20
2022-09-27T16:25:16.544Z,9.30
2022-09-27T16:27:43.947Z,9.30
2022-09-27T16:30:12.196Z,9.40
2022-09-27T16:32:46.545Z,9.40
2022-09-27T16:35:14.601Z,9.50
2022-09-27T16:37:42.240Z,9.60
2022-09-27T16:40:10.330Z,9.80
2022-09-27T16:42:38.085Z,9.80
2022-09-27T16:45:10.490Z,9.70
2022-09-27T16:47:39.140Z,9.70
2022-09-27T16:50:25.362Z,9.60
2022-09-27T16:52:53.527Z,9.60
2022-09-27T16:55:21.193Z,9.60
2022-09-27T16:57:49.319Z,9.70
2022-09-27T17:00:17.780Z,9.60
2022-09-27T17:02:48.478Z,9.60
2022-09-27T17:05:16.627Z,9.60
2022-09-27T17:07:43.999Z,9.60
2022-09-27T17:10:11.399Z,9.60
2022-09-27T17:12:38.754Z,9.50
2022-09-27T17:15:06.429Z,9.50
2022-09-27T17:17:33.748Z,9.50
2022-09-27T17:20:01.332Z,9.50
2022-09-27T17:22:28.673Z,9.50
2022-09-27T17:24:57.216Z,9.40
2022-09-27T17:27:28.193Z,9.50
2022-09-27T17:29:55.670Z,9.50
2022-09-27T17:32:24.718Z,9.50
2022-09-27T17:34:52.125Z,9.50
2022-09-27T17:37:19.819Z,9.50
2022-09-27T17:39:47.195Z,9.50
2022-09-27T17:42:14.614Z,9.50
2022-09-27T17:44:41.987Z,9.50
2022-09-27T17:47:28.045Z,9.40
2022-09-27T17:50:13.882Z,9.40
2022-09-27T17:52:41.660Z,9.40
2022-09-27T17:55:09.071Z,9.30
2022-09-27T17:57:36.426Z,9.30
2022-09-27T18:00:04.214Z,9.20
2022-09-27T18:02:40.193Z,9.10
2022-09-27T18:05:08.050Z,9.10
2022-09-27T18:07:35.473Z,8.90
2022-09-27T18:10:03.046Z,8.90
2022-09-27T18:12:34.883Z,8.80
2022-09-27T18:15:02.850Z,8.80
2022-09-27T18:17:32.766Z,8.70
2022-09-27T18:20:02.400Z,8.70
2022-09-27T18:23:02.861Z,8.70
2022-09-27T18:25:30.259Z,8.60
2022-09-27T18:27:57.659Z,8.60
2022-09-27T18:30:25.136Z,8.60
2022-09-27T18:32:52.833Z,8.60
2022-09-27T18:35:20.719Z,8.60
2022-09-27T18:37:51.618Z,8.60
2022-09-27T18:40:32.664Z,8.60
2022-09-27T18:43:06.496Z,8.60
2022-09-27T18:45:38.059Z,8.60
2022-09-27T18:48:05.866Z,8.70
2022-09-27T18:50:39.153Z,8.60
2022-09-27T18:53:08.336Z,8.50
2022-09-27T18:55:38.891Z,8.50
